Time;durP1;ratioP1;P1;durP2;ratioP2;P2;SDS_P1;SDS_P2;PMS_P1;PMS_P2;Temp;Humidity;BMP_temperature;BMP_pressure;BME280_temperature;BME280_humidity;BME280_pressure;Samples;Min_cycle;Max_cycle;Signal;HPM_P1;HPM_P2
2022/02/14 00:00:41;;;;;;;27.25;12.88;;;;;;;-0.80;81.25;100518.83;1734235;82;20999;-73
2022/02/14 00:03:09;;;;;;;22.70;12.28;;;;;;;-0.82;81.22;100520.92;1708914;82;20947;-73
2022/02/14 00:05:36;;;;;;;25.25;11.25;;;;;;;-0.84;81.31;100517.63;1733975;82;21462;-73
2022/02/14 00:08:06;;;;;;;25.30;11.70;;;;;;;-0.85;81.31;100522.72;1733988;82;21524;-73
2022/02/14 00:10:34;;;;;;;21.73;10.03;;;;;;;-0.87;81.26;100515.37;1734016;82;20975;-74
2022/02/14 00:13:05;;;;;;;22.27;11.18;;;;;;;-0.86;81.28;100525.13;1733889;82;21031;-72
2022/02/14 00:15:34;;;;;;;23.25;11.30;;;;;;;-0.86;81.28;100525.13;1733974;82;20888;-74
2022/02/14 00:18:05;;;;;;;22.65;10.68;;;;;;;-0.88;81.12;100519.10;1733870;82;20892;-73
2022/02/14 00:20:33;;;;;;;20.55;10.93;;;;;;;-0.92;81.16;100519.25;1733863;82;20987;-74
2022/02/14 00:23:02;;;;;;;24.70;10.58;;;;;;;-0.91;81.21;100518.19;1733842;82;20947;-73
2022/02/14 00:25:31;;;;;;;22.45;11.55;;;;;;;-0.90;81.21;100522.55;1734160;82;20939;-74
2022/02/14 00:27:59;;;;;;;18.62;9.83;;;;;;;-0.90;81.14;100514.42;1709284;82;20908;-74
2022/02/14 00:30:28;;;;;;;23.60;11.12;;;;;;;-0.88;81.06;100512.34;1734027;82;20948;-73
2022/02/14 00:32:56;;;;;;;22.98;10.78;;;;;;;-0.88;80.86;100507.77;1733927;82;21156;-74
2022/02/14 00:35:26;;;;;;;22.00;10.65;;;;;;;-0.91;80.82;100508.20;1733668;82;20999;-73
2022/02/14 00:37:54;;;;;;;18.98;9.78;;;;;;;-0.91;80.83;100495.19;1645716;86;21540;-74
2022/02/14 00:40:22;;;;;;;19.10;9.45;;;;;;;-0.91;80.82;100501.44;1718416;83;21052;-74
2022/02/14 00:42:49;;;;;;;21.15;10.32;;;;;;;-0.91;80.63;100487.07;1718685;83;21103;-73
2022/02/14 00:45:19;;;;;;;23.38;10.23;;;;;;;-0.91;80.50;100491.13;1733941;82;20876;-74
2022/02/14 00:47:45;;;;;;;18.50;10.05;;;;;;;-0.93;80.45;100484.59;1733981;82;21008;-74
2022/02/14 00:50:12;;;;;;;23.10;10.98;;;;;;;-0.92;80.44;100490.84;1671109;86;21095;-73
2022/02/14 00:52:40;;;;;;;22.07;10.23;;;;;;;-0.94;80.28;100488.86;1718567;83;21052;-74
2022/02/14 00:55:11;;;;;;;26.07;11.30;;;;;;;-0.96;80.29;100495.85;1718927;83;20896;-74
2022/02/14 00:57:39;;;;;;;20.65;10.15;;;;;;;-0.99;80.14;100483.58;1693831;83;21158;-74
2022/02/14 01:00:09;;;;;;;27.52;10.45;;;;;;;-0.99;80.11;100488.98;1718886;83;20940;-74
2022/02/14 01:02:40;;;;;;;;;;;;;;;-1.01;80.19;100482.95;1721142;83;21000;-74
2022/02/14 01:05:08;;;;;;;18.12;9.33;;;;;;;-1.00;80.11;100483.28;1718828;83;20166;-72
2022/02/14 01:07:38;;;;;;;17.82;8.70;;;;;;;-1.02;80.17;100483.18;1718586;83;21406;-71
2022/02/14 01:10:07;;;;;;;20.77;10.82;;;;;;;-1.04;80.24;100480.69;1718541;83;21535;-74
2022/02/14 01:12:35;;;;;;;19.87;10.10;;;;;;;-1.02;80.23;100485.37;1718491;83;20912;-74
2022/02/14 01:15:05;;;;;;;17.98;9.93;;;;;;;-1.04;80.16;100479.34;1718776;83;21011;-72
2022/02/14 01:17:34;;;;;;;22.87;9.65;;;;;;;-1.04;80.15;100473.93;1694108;83;21070;-73
2022/02/14 01:20:07;;;;;;;15.85;8.60;;;;;;;-1.09;80.05;100469.70;1718800;83;21512;-74
2022/02/14 01:22:37;;;;;;;18.15;9.18;;;;;;;-1.13;80.19;100476.09;1718537;83;21167;-74
2022/02/14 01:25:11;;;;;;;20.52;10.65;;;;;;;-1.12;80.33;100471.49;1695056;83;21406;-74
2022/02/14 01:27:40;;;;;;;18.50;9.93;;;;;;;-1.10;80.31;100476.17;1718924;83;20985;-74
2022/02/14 01:30:07;;;;;;;20.82;10.18;;;;;;;-1.11;80.28;100463.70;1718640;83;20948;-73
2022/02/14 01:32:37;;;;;;;20.92;10.82;;;;;;;-1.10;80.29;100463.99;1718856;83;20999;-73
2022/02/14 01:35:05;;;;;;;18.75;9.73;;;;;;;-1.10;80.21;100463.99;1718579;83;21145;-73
2022/02/14 01:37:39;;;;;;;21.00;10.20;;;;;;;-1.11;80.18;100459.64;1718348;83;20944;-72
2022/02/14 01:40:10;;;;;;;18.70;9.48;;;;;;;-1.14;80.20;100462.77;1734127;82;21000;-73
2022/02/14 01:42:36;;;;;;;16.95;9.15;;;;;;;-1.17;80.17;100461.33;1709580;82;21073;-72
2022/02/14 01:45:04;;;;;;;19.20;9.13;;;;;;;-1.19;80.29;100449.89;1734222;82;20948;-72
2022/02/14 01:47:35;;;;;;;19.73;9.60;;;;;;;-1.23;80.31;100447.34;1733834;82;21632;-72
2022/02/14 01:50:03;;;;;;;24.12;9.48;;;;;;;-1.25;80.34;100442.16;1734074;82;21511;-73
2022/02/14 01:52:35;;;;;;;19.30;9.38;;;;;;;-1.28;80.40;100446.63;1733442;82;20987;-72
2022/02/14 01:55:06;;;;;;;17.23;8.78;;;;;;;-1.27;80.50;100437.99;1645679;86;20951;-73
2022/02/14 01:57:35;;;;;;;19.23;10.48;;;;;;;-1.28;80.54;100443.92;1718821;83;21020;-73
2022/02/14 02:00:06;;;;;;;15.90;9.33;;;;;;;-1.25;80.58;100442.67;1734025;82;21127;-70
2022/02/14 02:02:36;;;;;;;;;;;;;;;-1.25;80.59;100439.45;1735818;82;21555;-73
2022/02/14 02:05:03;;;;;;;17.20;8.98;;;;;;;-1.24;80.56;100433.49;1734155;82;20100;-72
2022/02/14 02:07:31;;;;;;;22.13;9.60;;;;;;;-1.26;80.56;100429.66;1734164;82;21430;-72
2022/02/14 02:10:01;;;;;;;18.27;9.33;;;;;;;-1.27;80.56;100424.47;1734046;82;21481;-73
2022/02/14 02:12:29;;;;;;;19.00;10.43;;;;;;;-1.28;80.50;100422.83;1733721;82;21070;-72
2022/02/14 02:14:58;;;;;;;25.48;10.35;;;;;;;-1.30;80.58;100420.34;1733940;82;21003;-74
2022/02/14 02:17:30;;;;;;;17.32;9.60;;;;;;;-1.30;80.51;100422.20;1669957;85;21520;-73
2022/02/14 02:20:00;;;;;;;20.80;9.78;;;;;;;-1.31;80.50;100420.56;1715532;83;20932;-74
2022/02/14 02:22:31;;;;;;;20.65;9.45;;;;;;;-1.34;80.49;100416.41;1715284;83;21501;-74
2022/02/14 02:25:00;;;;;;;17.25;10.48;;;;;;;-1.35;80.57;100419.62;1715569;83;21529;-74
2022/02/14 02:27:29;;;;;;;19.55;9.90;;;;;;;-1.33;80.53;100415.89;1715723;83;20881;-72
2022/02/14 02:29:59;;;;;;;19.10;9.03;;;;;;;-1.33;80.43;100416.70;1715390;83;21017;-74
2022/02/14 02:32:29;;;;;;;19.20;8.80;;;;;;;-1.34;80.50;100415.05;1715752;83;20992;-71
2022/02/14 02:34:58;;;;;;;18.32;9.73;;;;;;;-1.37;80.44;100408.73;1715526;83;20926;-73
2022/02/14 02:37:26;;;;;;;20.15;8.85;;;;;;;-1.38;80.57;100411.14;1715684;83;21084;-73
2022/02/14 02:39:56;;;;;;;20.75;9.13;;;;;;;-1.39;80.44;100411.66;1715480;83;20905;-72
2022/02/14 02:42:23;;;;;;;17.40;9.43;;;;;;;-1.40;80.51;100414.58;1715403;83;20988;-73
2022/02/14 02:44:52;;;;;;;17.45;8.63;;;;;;;-1.39;80.54;100412.17;1715524;83;21093;-72
2022/02/14 02:47:21;;;;;;;23.45;9.45;;;;;;;-1.39;80.50;100415.71;1689371;83;21004;-74
2022/02/14 02:49:49;;;;;;;19.02;8.85;;;;;;;-1.40;80.44;100410.52;1715338;83;21171;-75
2022/02/14 02:52:17;;;;;;;15.83;8.75;;;;;;;-1.40;80.50;100405.92;1715420;83;21057;-73
2022/02/14 02:54:44;;;;;;;16.95;8.48;;;;;;;-1.40;80.47;100403.22;1715486;83;21008;-71
2022/02/14 02:57:16;;;;;;;19.80;9.35;;;;;;;-1.38;80.43;100407.09;1715352;83;20975;-73
2022/02/14 02:59:44;;;;;;;17.73;9.80;;;;;;;-1.40;80.39;100402.41;1715556;83;21079;-73
2022/02/14 03:02:12;;;;;;;18.37;8.45;;;;;;;-1.43;80.28;100396.09;1715578;83;21012;-73
2022/02/14 03:04:40;;;;;;;19.27;9.08;;;;;;;-1.45;80.38;100392.23;1715390;83;20960;-74
2022/02/14 03:07:10;;;;;;;17.62;8.95;;;;;;;-1.45;80.38;100387.36;1715472;83;20994;-73
2022/02/14 03:09:38;;;;;;;15.35;8.55;;;;;;;-1.48;80.35;100395.38;1715358;83;21446;-73
2022/02/14 03:12:06;;;;;;;20.43;9.55;;;;;;;-1.49;80.50;100396.43;1715437;83;21044;-73
2022/02/14 03:14:39;;;;;;;22.30;9.43;;;;;;;-1.50;80.46;100394.23;1715456;83;21365;-73
2022/02/14 03:17:10;;;;;;;16.20;8.38;;;;;;;-1.51;80.52;100399.36;1715313;83;20984;-73
2022/02/14 03:19:39;;;;;;;24.80;10.90;;;;;;;-1.51;80.56;100398.00;1718071;83;20908;-73
2022/02/14 03:22:06;;;;;;;16.10;9.20;;;;;;;-1.51;80.51;100396.66;1733725;82;20932;-73
2022/02/14 03:24:33;;;;;;;23.07;9.28;;;;;;;-1.49;80.55;100390.52;1733981;82;21000;-74
2022/02/14 03:27:02;;;;;;;19.48;8.75;;;;;;;-1.47;80.51;100398.41;1670519;85;21779;-71
2022/02/14 03:29:33;;;;;;;19.77;9.55;;;;;;;-1.49;80.43;100396.43;1718609;83;20960;-74
2022/02/14 03:32:00;;;;;;;19.95;9.25;;;;;;;-1.50;80.43;100397.48;1718681;82;21490;-73
2022/02/14 03:34:29;;;;;;;16.37;8.80;;;;;;;-1.53;80.55;100390.63;1718479;83;21014;-73
2022/02/14 03:36:58;;;;;;;17.85;8.68;;;;;;;-1.52;80.60;100389.56;1718684;83;20961;-72
2022/02/14 03:39:28;;;;;;;20.12;9.45;;;;;;;-1.52;80.56;100390.92;1718689;83;21148;-72
2022/02/14 03:41:59;;;;;;;20.23;8.60;;;;;;;-1.53;80.54;100387.09;1718434;83;20933;-73
2022/02/14 03:44:29;;;;;;;16.50;8.78;;;;;;;-1.54;80.55;100391.69;1718664;83;21145;-74
2022/02/14 03:46:56;;;;;;;16.97;9.05;;;;;;;-1.55;80.50;100388.66;1718836;83;21509;-73
2022/02/14 03:49:28;;;;;;;20.15;10.45;;;;;;;-1.56;80.55;100382.12;1718636;83;20956;-72
2022/02/14 03:51:56;;;;;;;24.67;10.53;;;;;;;-1.57;80.62;100385.37;1719174;83;21122;-73
2022/02/14 03:54:22;;;;;;;22.42;10.88;;;;;;;-1.57;80.60;100373.72;1718744;83;20952;-71
2022/02/14 03:56:49;;;;;;;26.00;9.55;;;;;;;-1.61;80.59;100376.02;1718971;83;21070;-72
2022/02/14 03:59:16;;;;;;;22.62;9.93;;;;;;;-1.62;80.64;100369.78;1718826;83;21481;-73
2022/02/14 04:01:46;;;;;;;22.32;9.25;;;;;;;-1.63;80.70;100364.08;1718660;83;21008;-75
2022/02/14 04:04:17;;;;;;;22.45;9.93;;;;;;;-1.66;80.70;100368.58;1718715;83;20929;-74
2022/02/14 04:06:48;;;;;;;19.02;9.23;;;;;;;-1.69;80.79;100361.42;1718641;83;20940;-74
2022/02/14 04:09:15;;;;;;;19.35;8.90;;;;;;;-1.73;80.82;100364.56;1694142;83;21052;-74
2022/02/14 04:11:43;;;;;;;20.95;10.25;;;;;;;-1.74;80.98;100361.53;1718603;83;21011;-70
2022/02/14 04:14:14;;;;;;;19.40;9.40;;;;;;;-1.74;81.08;100366.13;1718614;83;20976;-74
2022/02/14 04:16:42;;;;;;;20.92;9.50;;;;;;;-1.75;81.12;100353.13;1718544;83;21152;-74
2022/02/14 04:19:14;;;;;;;20.30;8.98;;;;;;;-1.74;81.03;100349.37;1718556;83;20952;-74
2022/02/14 04:21:44;;;;;;;20.72;9.35;;;;;;;-1.74;81.19;100351.27;1718268;83;21525;-74
2022/02/14 04:24:12;;;;;;;26.10;10.05;;;;;;;-1.73;81.23;100356.97;1718752;83;21015;-74
2022/02/14 04:26:40;;;;;;;15.88;8.40;;;;;;;-1.72;81.24;100354.05;1719018;83;20941;-74
2022/02/14 04:29:08;;;;;;;20.60;9.15;;;;;;;-1.72;81.21;100352.69;1718870;83;20877;-74
2022/02/14 04:31:38;;;;;;;17.30;9.50;;;;;;;-1.72;81.19;100351.85;1718710;83;20992;-74
2022/02/14 04:34:11;;;;;;;16.97;8.23;;;;;;;-1.73;81.14;100351.56;1718574;83;20892;-74
2022/02/14 04:36:39;;;;;;;18.17;10.03;;;;;;;-1.74;81.23;100361.53;1719146;83;20961;-74
2022/02/14 04:39:07;;;;;;;26.02;10.25;;;;;;;-1.76;81.24;100355.55;1718724;83;21016;-75
2022/02/14 04:41:36;;;;;;;22.67;10.25;;;;;;;-1.76;81.24;100364.16;1718714;83;21344;-73
2022/02/14 04:44:09;;;;;;;20.35;9.23;;;;;;;-1.77;81.36;100366.54;1733664;82;21477;-73
2022/02/14 04:46:36;;;;;;;20.43;9.13;;;;;;;-1.77;81.42;100365.19;1733925;82;21508;-73
2022/02/14 04:49:11;;;;;;;26.40;9.65;;;;;;;-1.76;81.46;100369.56;1733977;82;20862;-73
2022/02/14 04:51:37;;;;;;;24.52;9.68;;;;;;;-1.76;81.41;100370.41;1734121;82;21054;-74
2022/02/14 04:54:04;;;;;;;18.40;9.20;;;;;;;-1.77;81.41;100370.08;1734078;82;21659;-73
2022/02/14 04:56:31;;;;;;;19.77;9.45;;;;;;;-1.77;81.43;100375.48;1734059;82;20944;-74
2022/02/14 04:58:58;;;;;;;20.15;9.68;;;;;;;-1.76;81.46;100379.02;1645232;86;21041;-75
2022/02/14 05:01:28;;;;;;;17.73;9.65;;;;;;;-1.78;81.45;100377.06;1718946;83;21008;-74
2022/02/14 05:03:56;;;;;;;23.42;10.13;;;;;;;-1.79;81.44;100376.77;1718599;83;21056;-74
2022/02/14 05:06:23;;;;;;;22.07;10.30;;;;;;;-1.80;81.52;100377.79;1734167;82;21590;-73
2022/02/14 05:08:52;;;;;;;19.07;9.23;;;;;;;-1.79;81.62;100380.81;1708877;82;21043;-73
2022/02/14 05:11:23;;;;;;;22.02;10.08;;;;;;;-1.80;81.60;100386.73;1670865;85;20908;-74
2022/02/14 05:13:50;;;;;;;17.75;10.10;;;;;;;-1.80;81.65;100388.08;1718526;83;21005;-74
2022/02/14 05:16:23;;;;;;;18.62;9.75;;;;;;;-1.80;81.66;100385.38;1718730;83;21079;-70
2022/02/14 05:18:48;;;;;;;17.92;8.35;;;;;;;-1.80;81.75;100392.14;1718427;83;21550;-74
2022/02/14 05:21:16;;;;;;;21.10;9.58;;;;;;;-1.84;81.45;100391.73;1718510;83;21016;-74
2022/02/14 05:23:43;;;;;;;25.80;10.72;;;;;;;-1.87;81.60;100401.62;1718551;83;20976;-74
2022/02/14 05:26:11;;;;;;;25.37;11.05;;;;;;;-1.87;81.77;100400.80;1718644;83;21004;-73
2022/02/14 05:28:39;;;;;;;23.77;10.32;;;;;;;-1.85;81.95;100404.12;1718491;83;21204;-73
2022/02/14 05:31:07;;;;;;;20.27;10.30;;;;;;;-1.86;81.77;100403.82;1718501;83;21120;-72
2022/02/14 05:33:37;;;;;;;23.27;10.15;;;;;;;-1.87;81.97;100404.84;1718712;83;21458;-74
2022/02/14 05:36:08;;;;;;;24.43;10.23;;;;;;;-1.87;82.11;100412.95;1733847;82;20988;-73
2022/02/14 05:38:35;;;;;;;23.32;10.63;;;;;;;-1.85;82.06;100417.63;1733962;82;21047;-72
2022/02/14 05:41:03;;;;;;;23.55;9.83;;;;;;;-1.91;81.89;100418.50;1733848;82;20928;-74
2022/02/14 05:43:32;;;;;;;25.23;10.10;;;;;;;-1.93;82.07;100420.06;1670613;86;21565;-74
2022/02/14 05:46:01;;;;;;;23.47;9.50;;;;;;;-1.93;82.34;100420.06;1718555;83;20913;-72
2022/02/14 05:48:30;;;;;;;26.02;10.80;;;;;;;-1.92;82.36;100424.41;1718568;83;20897;-73
2022/02/14 05:51:02;;;;;;;22.35;10.32;;;;;;;-1.90;82.54;100426.38;1718619;83;21013;-73
2022/02/14 05:53:35;;;;;;;23.20;10.45;;;;;;;-1.82;82.63;100427.16;1719072;83;20956;-74
2022/02/14 05:56:04;;;;;;;21.93;10.80;;;;;;;-1.78;82.44;100432.45;1718716;83;21727;-74
2022/02/14 05:58:30;;;;;;;24.18;10.78;;;;;;;-1.76;82.48;100435.78;1709135;82;21484;-74
2022/02/14 06:01:08;;;;;;;21.40;10.28;;;;;;;-1.72;82.51;100441.05;1733917;82;20992;-74
2022/02/14 06:03:37;;;;;;;19.65;10.15;;;;;;;-1.71;82.42;100439.48;1734244;82;20947;-70
2022/02/14 06:06:06;;;;;;;24.43;10.70;;;;;;;-1.66;82.56;100443.42;1733903;82;21011;-74
2022/02/14 06:08:34;;;;;;;22.37;10.05;;;;;;;-1.62;82.55;100445.47;1734155;82;21624;-74
2022/02/14 06:11:05;;;;;;;28.12;10.98;;;;;;;-1.57;82.55;100446.20;1733791;82;21470;-72
2022/02/14 06:13:36;;;;;;;21.52;11.20;;;;;;;-1.49;82.56;100449.16;1670743;85;21500;-73
2022/02/14 06:16:04;;;;;;;29.20;11.10;;;;;;;-1.41;82.45;100442.13;1718681;83;20941;-73
2022/02/14 06:18:37;;;;;;;21.97;9.58;;;;;;;-1.36;82.23;100446.88;1718473;83;21064;-73
2022/02/14 06:21:04;;;;;;;22.37;10.50;;;;;;;-1.30;82.00;100443.84;1718366;83;21258;-72
2022/02/14 06:23:33;;;;;;;20.52;10.90;;;;;;;-1.27;81.77;100449.65;1693992;83;20992;-73
2022/02/14 06:26:02;;;;;;;22.35;10.30;;;;;;;-1.24;81.68;100439.73;1718484;83;20929;-74
2022/02/14 06:28:29;;;;;;;24.43;10.08;;;;;;;-1.20;81.54;100441.48;1718548;83;21109;-73
2022/02/14 06:30:57;;;;;;;20.50;9.63;;;;;;;-1.16;81.40;100451.35;1733868;82;21015;-73
2022/02/14 06:33:28;;;;;;;24.30;10.65;;;;;;;-1.16;81.29;100445.94;1733723;82;21930;-73
2022/02/14 06:35:57;;;;;;;15.40;9.10;;;;;;;-1.14;81.24;100453.29;1733681;82;20980;-73
2022/02/14 06:38:26;;;;;;;16.42;8.75;;;;;;;-1.08;81.13;100452.95;1733841;82;21047;-70
2022/02/14 06:40:56;;;;;;;19.85;9.98;;;;;;;-1.05;81.13;100451.99;1709652;82;20991;-73
2022/02/14 06:43:29;;;;;;;20.25;10.08;;;;;;;-0.99;81.00;100454.36;1729870;82;21071;-71
2022/02/14 06:46:02;;;;;;;20.35;9.10;;;;;;;-0.92;80.81;100452.95;1733993;82;39936;-73
2022/02/14 06:48:31;;;;;;;24.15;10.08;;;;;;;-0.86;80.67;100454.25;1733235;82;20960;-70
2022/02/14 06:50:59;;;;;;;18.52;10.20;;;;;;;-0.82;80.53;100447.84;1733984;82;20944;-72
2022/02/14 06:53:26;;;;;;;23.52;10.65;;;;;;;-0.78;80.34;100449.59;1670806;86;21020;-72
2022/02/14 06:56:00;;;;;;;25.60;11.30;;;;;;;-0.75;80.19;100441.85;1716469;83;20984;-73
2022/02/14 06:58:30;;;;;;;20.92;10.50;;;;;;;-0.68;80.02;100440.98;1718594;83;21488;-72
2022/02/14 07:00:57;;;;;;;27.27;10.03;;;;;;;-0.63;79.83;100447.37;1718469;83;21401;-73
2022/02/14 07:03:30;;;;;;;19.00;10.60;;;;;;;-0.59;79.51;100441.50;1734098;82;20988;-74
2022/02/14 07:05:58;;;;;;;25.82;10.20;;;;;;;-0.56;79.40;100448.66;1733904;82;20951;-75
2022/02/14 07:08:26;;;;;;;19.60;9.10;;;;;;;-0.50;78.91;100453.20;1733858;82;20951;-73
2022/02/14 07:10:55;;;;;;;34.90;11.15;;;;;;;-0.47;78.87;100445.66;1709004;82;21573;-73
2022/02/14 07:13:29;;;;;;;21.90;9.18;;;;;;;-0.44;78.96;100450.63;1734013;82;20987;-74
2022/02/14 07:15:58;;;;;;;23.98;9.20;;;;;;;-0.39;78.85;100446.20;1670992;86;21054;-74
2022/02/14 07:18:28;;;;;;;22.22;9.53;;;;;;;-0.33;78.73;100440.43;1718680;82;21508;-72
2022/02/14 07:21:00;;;;;;;18.80;9.48;;;;;;;-0.27;78.66;100442.23;1715855;83;20880;-73
2022/02/14 07:23:31;;;;;;;21.82;9.45;;;;;;;-0.21;78.24;100435.09;1715279;83;20948;-74
2022/02/14 07:25:58;;;;;;;23.25;9.50;;;;;;;-0.15;77.82;100436.05;1715351;83;20945;-73
2022/02/14 07:28:26;;;;;;;21.68;9.30;;;;;;;-0.13;77.43;100431.24;1715353;83;20952;-72
2022/02/14 07:30:53;;;;;;;18.25;8.80;;;;;;;-0.11;77.42;100435.08;1715556;83;20932;-72
2022/02/14 07:33:23;;;;;;;20.20;9.23;;;;;;;-0.08;77.12;100430.04;1715496;83;21016;-74
2022/02/14 07:35:51;;;;;;;15.20;8.60;;;;;;;-0.04;77.16;100432.61;1715537;83;21235;-72
2022/02/14 07:38:17;;;;;;;17.10;8.95;;;;;;;0.01;77.01;100426.50;1715735;83;21442;-74
2022/02/14 07:40:47;;;;;;;19.45;8.43;;;;;;;0.07;76.89;100431.00;1715451;83;20992;-75
2022/02/14 07:43:16;;;;;;;17.95;9.88;;;;;;;0.13;76.43;100427.92;1715471;83;20980;-74
2022/02/14 07:45:47;;;;;;;21.68;8.95;;;;;;;0.18;76.47;100427.23;1715702;83;20988;-74
2022/02/14 07:48:17;;;;;;;17.32;9.10;;;;;;;0.25;76.43;100430.69;1716006;83;21510;-74
2022/02/14 07:50:47;;;;;;;16.32;9.00;;;;;;;0.33;76.19;100429.53;1715036;83;21052;-73
2022/02/14 07:53:18;;;;;;;13.55;8.25;;;;;;;0.40;75.93;100429.45;1715498;83;21004;-73
2022/02/14 07:55:50;;;;;;;18.30;8.65;;;;;;;0.46;75.64;100437.48;1715549;83;21497;-74
2022/02/14 07:58:18;;;;;;;21.55;8.80;;;;;;;0.55;75.30;100432.57;1715437;83;20897;-74
2022/02/14 08:00:45;;;;;;;15.60;8.73;;;;;;;0.59;75.06;100427.52;1715656;83;21084;-74
2022/02/14 08:03:21;;;;;;;22.70;8.93;;;;;;;0.65;74.79;100433.91;1715616;83;20984;-74
2022/02/14 08:05:52;;;;;;;19.07;9.23;;;;;;;0.71;74.62;100433.81;1715450;83;20949;-74
2022/02/14 08:08:19;;;;;;;18.32;7.60;;;;;;;0.78;74.19;100435.59;1689049;83;21394;-71
2022/02/14 08:10:48;;;;;;;20.02;8.88;;;;;;;0.83;73.75;100431.13;1715597;83;20957;-73
2022/02/14 08:13:17;;;;;;;18.40;8.20;;;;;;;0.88;73.80;100430.95;1715357;83;21074;-74
2022/02/14 08:15:46;;;;;;;16.80;8.43;;;;;;;0.93;73.26;100431.91;1689261;83;20988;-75
2022/02/14 08:18:15;;;;;;;16.57;7.35;;;;;;;0.96;72.95;100428.73;1689457;83;20984;-74
2022/02/14 08:20:42;;;;;;;23.77;8.23;;;;;;;1.00;72.62;100428.26;1717161;83;21003;-75
2022/02/14 08:23:11;;;;;;;17.50;8.10;;;;;;;1.05;72.82;100435.17;1693766;83;20941;-74
2022/02/14 08:25:41;;;;;;;15.53;7.92;;;;;;;1.09;72.30;100429.03;1718939;83;21550;-76
2022/02/14 08:28:09;;;;;;;16.02;7.12;;;;;;;1.14;72.11;100425.64;1718549;83;21382;-74
2022/02/14 08:30:36;;;;;;;19.80;8.10;;;;;;;1.19;71.98;100421.69;1718750;83;20988;-75
2022/02/14 08:33:09;;;;;;;17.20;7.75;;;;;;;1.25;71.99;100419.06;1694654;83;21086;-74
2022/02/14 08:35:38;;;;;;;16.05;7.22;;;;;;;1.29;71.38;100421.09;1718887;83;20972;-71
2022/02/14 08:38:08;;;;;;;15.78;7.72;;;;;;;1.35;71.40;100423.37;1718744;83;21689;-73
2022/02/14 08:40:37;;;;;;;20.57;8.10;;;;;;;1.42;71.52;100433.61;1718756;83;20988;-74
2022/02/14 08:43:04;;;;;;;19.35;8.78;;;;;;;1.49;71.37;100427.22;1718912;83;20999;-73
2022/02/14 08:45:32;;;;;;;16.75;8.70;;;;;;;1.55;71.28;100437.95;1718551;83;20988;-74
2022/02/14 08:48:02;;;;;;;17.80;9.10;;;;;;;1.62;70.78;100434.31;1718870;83;20961;-74
2022/02/14 08:50:34;;;;;;;17.50;8.63;;;;;;;1.66;70.37;100431.40;1718678;83;21626;-75
2022/02/14 08:53:04;;;;;;;16.75;8.70;;;;;;;1.71;70.43;100436.95;1733948;82;21492;-73
2022/02/14 08:55:34;;;;;;;19.57;8.00;;;;;;;1.80;69.62;100436.05;1734058;82;21051;-73
2022/02/14 08:58:10;;;;;;;27.67;9.63;;;;;;;1.86;69.65;100435.64;1669490;86;21492;-74
2022/02/14 09:00:40;;;;;;;21.73;9.20;;;;;;;1.93;68.91;100437.16;1718768;82;20937;-75
2022/02/14 09:03:10;;;;;;;24.63;9.93;;;;;;;1.98;68.69;100435.62;1718732;83;21536;-75
2022/02/14 09:05:40;;;;;;;17.00;8.50;;;;;;;2.03;68.68;100440.61;1718518;83;20952;-75
2022/02/14 09:08:08;;;;;;;15.95;8.93;;;;;;;2.11;68.32;100444.03;1718724;83;21024;-74
2022/02/14 09:10:39;;;;;;;17.98;8.75;;;;;;;2.16;67.85;100439.53;1718580;83;20980;-74
2022/02/14 09:13:08;;;;;;;17.60;8.15;;;;;;;2.22;67.32;100439.64;1718881;83;20985;-75
2022/02/14 09:15:35;;;;;;;15.32;7.25;;;;;;;2.24;67.33;100445.11;1718706;83;21093;-73
2022/02/14 09:18:04;;;;;;;18.80;8.38;;;;;;;2.29;67.02;100448.46;1718577;83;21897;-74
2022/02/14 09:20:36;;;;;;;18.02;7.95;;;;;;;2.31;65.76;100438.17;1717680;83;21549;-75
2022/02/14 09:23:07;;;;;;;17.15;8.38;;;;;;;2.31;66.21;100444.97;1716124;83;21036;-75
2022/02/14 09:25:36;;;;;;;16.10;8.00;;;;;;;2.37;66.47;100448.08;1715497;83;21532;-74
2022/02/14 09:28:04;;;;;;;16.85;7.62;;;;;;;2.48;66.30;100442.83;1715687;83;21184;-74
2022/02/14 09:30:33;;;;;;;15.03;7.37;;;;;;;2.57;65.93;100445.47;1715031;83;21524;-74
2022/02/14 09:33:02;;;;;;;19.15;8.35;;;;;;;2.63;65.84;100441.77;1715026;83;21083;-74
2022/02/14 09:35:32;;;;;;;18.02;7.25;;;;;;;2.67;65.61;100436.14;1706176;83;21055;-72
2022/02/14 09:38:07;;;;;;;14.05;6.80;;;;;;;2.67;65.14;100439.38;1648257;87;21073;-72
2022/02/14 09:40:35;;;;;;;14.78;6.92;;;;;;;2.68;65.14;100428.77;1629599;87;21165;-72
2022/02/14 09:43:07;;;;;;;15.83;7.92;;;;;;;2.67;63.88;100429.33;1715063;83;21060;-74
2022/02/14 09:45:39;;;;;;;12.70;7.33;;;;;;;2.67;63.91;100432.58;1675762;83;21060;-71
2022/02/14 09:48:10;;;;;;;18.42;7.85;;;;;;;2.70;64.07;100429.89;1647806;85;21045;-69
2022/02/14 09:50:40;;;;;;;14.35;7.50;;;;;;;2.76;64.56;100431.66;1673157;85;21048;-72
2022/02/14 09:53:09;;;;;;;15.40;7.40;;;;;;;2.82;63.89;100428.47;1712620;83;21547;-69
2022/02/14 09:55:39;;;;;;;16.75;7.33;;;;;;;2.86;64.08;100422.83;1714273;83;21001;-74
2022/02/14 09:58:08;;;;;;;14.78;6.10;;;;;;;2.89;63.85;100418.25;1711126;83;22095;-71
2022/02/14 10:00:41;;;;;;;12.93;6.20;;;;;;;2.91;63.06;100422.39;1714566;83;21507;-70
2022/02/14 10:03:18;;;;;;;13.58;7.28;;;;;;;2.94;62.14;100427.03;1715385;83;21075;-73
2022/02/14 10:05:51;;;;;;;21.05;7.20;;;;;;;2.92;62.34;100419.11;1695317;83;21599;-73
2022/02/14 10:08:24;;;;;;;16.80;8.30;;;;;;;2.98;62.81;100419.50;1714404;83;20997;-71
2022/02/14 10:10:53;;;;;;;;;;;;;;;3.08;62.98;100415.28;1717900;83;20975;-71
2022/02/14 10:13:33;;;;;;;15.88;7.08;;;;;;;3.18;63.12;100411.89;1715833;83;20387;-72
2022/02/14 10:16:10;;;;;;;16.23;8.13;;;;;;;3.24;62.24;100413.08;1700399;83;21589;-74
2022/02/14 10:18:41;;;;;;;14.13;7.55;;;;;;;3.24;61.88;100414.45;1693194;83;21436;-74
2022/02/14 10:21:26;;;;;;;13.88;7.00;;;;;;;3.25;62.48;100407.11;1692434;83;21024;-72
2022/02/14 10:24:16;;;;;;;16.62;6.92;;;;;;;3.34;61.93;100404.27;1695394;83;21039;-75
2022/02/14 10:26:47;;;;;;;13.95;7.10;;;;;;;3.40;61.38;100407.34;1699903;83;21059;-72
2022/02/14 10:29:31;;;;;;;16.93;6.58;;;;;;;3.41;60.92;100397.28;1648348;87;21126;-72
2022/02/14 10:31:59;;;;;;;;;;;;;;;3.45;60.82;100396.21;1699300;83;21148;-75
2022/02/14 10:34:41;;;;;;;10.70;5.80;;;;;;;3.48;60.33;100391.09;1664941;84;20910;-77
2022/02/14 10:37:13;;;;;;;12.07;6.08;;;;;;;3.50;60.09;100389.47;1693713;83;20919;-72
2022/02/14 10:39:45;;;;;;;17.75;6.55;;;;;;;3.53;60.23;100390.36;1695079;83;21024;-75
2022/02/14 10:42:18;;;;;;;16.40;7.70;;;;;;;3.56;60.38;100384.40;1647731;87;21128;-73
2022/02/14 10:47:46;;;;;;;11.45;6.25;;;;;;;3.59;60.09;100389.87;1671612;83;21080;-73
2022/02/14 10:50:19;;;;;;;;;;;;;;;3.59;60.37;100389.34;1698904;83;21472;-72
2022/02/14 10:52:55;;;;;;;15.58;7.37;;;;;;;3.67;60.31;100381.81;1697020;83;20429;-74
2022/02/14 10:55:34;;;;;;;13.03;5.97;;;;;;;3.75;60.25;100385.46;1696137;83;21480;-72
2022/02/14 10:58:04;;;;;;;16.57;5.67;;;;;;;3.85;59.42;100383.39;1697395;82;21223;-75
2022/02/14 11:00:36;;;;;;;8.88;5.05;;;;;;;3.91;58.96;100385.09;1649341;83;21055;-74
2022/02/14 11:03:06;;;;;;;12.18;5.85;;;;;;;4.00;58.19;100385.48;1693189;83;21591;-70
2022/02/14 11:05:33;;;;;;;13.72;6.55;;;;;;;4.03;57.99;100386.89;1694141;83;21448;-74
2022/02/14 11:08:05;;;;;;;9.63;5.28;;;;;;;4.03;57.83;100390.42;1693653;83;20933;-74
2022/02/14 11:10:33;;;;;;;11.08;4.75;;;;;;;4.00;58.17;100386.84;1693352;83;21047;-74
2022/02/14 11:13:02;;;;;;;10.18;4.80;;;;;;;4.04;57.93;100378.45;1693986;83;20960;-72
2022/02/14 11:15:34;;;;;;;7.33;4.35;;;;;;;4.07;56.62;100388.84;1644362;87;21028;-72
2022/02/14 11:18:14;;;;;;;9.18;4.80;;;;;;;4.05;55.39;100384.17;1711917;83;21048;-74
2022/02/14 11:20:43;;;;;;;11.65;5.42;;;;;;;3.99;55.44;100375.66;1715662;83;21021;-75
2022/02/14 11:23:12;;;;;;;9.73;5.40;;;;;;;3.98;55.92;100375.36;1715929;82;20988;-73
2022/02/14 11:26:19;;;;;;;17.67;6.25;;;;;;;3.99;55.22;100367.48;1678697;84;21019;-74
2022/02/14 11:28:50;;;;;;;8.48;4.70;;;;;;;3.98;55.27;100369.37;1680271;84;21069;-73
2022/02/14 11:31:19;;;;;;;12.20;5.08;;;;;;;3.97;54.80;100365.54;1717848;83;21481;-73
2022/02/14 11:33:57;;;;;;;11.80;4.80;;;;;;;3.97;55.06;100362.81;1718364;83;21406;-74